Time;durP1;ratioP1;P1;durP2;ratioP2;P2;SDS_P1;SDS_P2;PMS_P1;PMS_P2;Temp;Humidity;BMP_temperature;BMP_pressure;BME280_temperature;BME280_humidity;BME280_pressure;Samples;Min_cycle;Max_cycle;Signal;HPM_P1;HPM_P2
2023/08/08 00:00:51;;;;;;;6.38;2.70;;;;;;;13.57;79.65;100189.59;5027635;28;20406;-65
2023/08/08 00:03:18;;;;;;;9.45;2.45;;;;;;;13.55;79.99;100198.59;5019940;28;20104;-70
2023/08/08 00:05:45;;;;;;;8.38;2.90;;;;;;;13.50;80.18;100193.69;5025232;28;20157;-65
2023/08/08 00:08:12;;;;;;;12.05;2.45;;;;;;;13.46;80.36;100199.31;5020444;28;20060;-64
2023/08/08 00:10:40;;;;;;;6.40;2.30;;;;;;;13.39;80.64;100199.81;5017857;28;20045;-62
2023/08/08 00:13:07;;;;;;;9.48;2.22;;;;;;;13.39;81.03;100180.47;5019196;28;20076;-65
2023/08/08 00:15:34;;;;;;;7.13;2.15;;;;;;;13.37;81.03;100195.59;5026483;28;20633;-66
2023/08/08 00:18:01;;;;;;;11.10;3.05;;;;;;;13.36;81.10;100180.69;5019794;28;20058;-62
2023/08/08 00:20:29;;;;;;;12.77;2.63;;;;;;;13.35;81.50;100187.78;5030339;28;20128;-67
2023/08/08 00:22:56;;;;;;;7.00;2.45;;;;;;;13.34;81.63;100187.91;5025948;28;20045;-66
2023/08/08 00:25:23;;;;;;;8.48;2.92;;;;;;;13.31;81.76;100204.00;5030683;28;20135;-65
2023/08/08 00:27:50;;;;;;;4.57;2.40;;;;;;;13.31;82.10;100207.50;5029297;28;20133;-65
2023/08/08 00:30:18;;;;;;;5.80;2.50;;;;;;;13.29;82.65;100205.94;5026203;28;20136;-65
2023/08/08 00:32:45;;;;;;;8.40;2.33;;;;;;;13.20;83.36;100204.81;5031946;28;20077;-65
2023/08/08 00:35:12;;;;;;;9.38;2.30;;;;;;;13.17;83.87;100205.88;5027884;28;20144;-65
2023/08/08 00:37:39;;;;;;;7.32;2.20;;;;;;;13.10;84.60;100217.03;5026369;28;20153;-68
2023/08/08 00:40:07;;;;;;;9.68;3.00;;;;;;;13.05;84.61;100209.44;5029725;28;20121;-66
2023/08/08 00:42:34;;;;;;;9.25;3.03;;;;;;;13.09;84.34;100239.97;5035276;28;20076;-66
2023/08/08 00:45:03;;;;;;;5.47;2.30;;;;;;;13.07;84.37;100220.75;5038783;28;20080;-65
2023/08/08 00:47:34;;;;;;;7.35;2.53;;;;;;;13.03;84.73;100210.53;5040371;28;20076;-65
2023/08/08 00:50:03;;;;;;;7.57;2.42;;;;;;;13.03;85.06;100211.38;5034893;28;20077;-66
2023/08/08 00:52:30;;;;;;;9.77;2.70;;;;;;;12.98;84.89;100228.53;5029042;28;20091;-65
2023/08/08 00:54:57;;;;;;;9.85;2.78;;;;;;;12.90;85.65;100211.44;5027620;28;20216;-66
2023/08/08 00:57:25;;;;;;;7.13;2.65;;;;;;;12.91;85.74;100214.94;5035259;28;20116;-65
2023/08/08 00:59:52;;;;;;;11.45;2.70;;;;;;;12.89;85.48;100219.50;5024693;28;20144;-64
2023/08/08 01:02:19;;;;;;;5.43;2.00;;;;;;;12.87;85.28;100195.81;5031273;28;20073;-65
2023/08/08 01:04:47;;;;;;;18.77;2.78;;;;;;;12.86;85.67;100214.44;5023182;28;20250;-66
2023/08/08 01:07:25;;;;;;;6.95;2.25;;;;;;;12.80;85.64;100214.91;5027360;28;20053;-64
2023/08/08 01:10:07;;;;;;;4.35;1.88;;;;;;;12.80;85.17;100217.53;5023925;28;20084;-66
2023/08/08 01:13:02;;;;;;;7.05;2.60;;;;;;;12.80;84.83;100214.91;5023460;28;20064;-66
2023/08/08 01:15:35;;;;;;;4.55;1.92;;;;;;;12.76;84.97;100213.44;5024272;28;20111;-64
2023/08/08 01:18:07;;;;;;;6.68;2.47;;;;;;;12.73;85.00;100211.88;5029475;28;20045;-64
2023/08/08 01:20:35;;;;;;;4.40;2.22;;;;;;;12.68;85.99;100214.00;5026482;28;20041;-65
2023/08/08 01:23:26;;;;;;;7.93;2.70;;;;;;;12.67;85.73;100201.75;5032111;28;20037;-65
2023/08/08 01:25:54;;;;;;;8.02;2.30;;;;;;;12.69;85.20;100215.69;5022433;28;20052;-65
2023/08/08 01:28:22;;;;;;;6.90;2.70;;;;;;;12.66;85.41;100206.22;5021528;28;20145;-64
2023/08/08 01:30:50;;;;;;;10.00;2.65;;;;;;;12.60;85.37;100208.44;5019784;28;20572;-66
2023/08/08 01:33:17;;;;;;;7.82;2.53;;;;;;;12.54;85.64;100203.63;5023719;28;20112;-64
2023/08/08 01:35:48;;;;;;;5.07;2.10;;;;;;;12.53;85.77;100215.16;5020349;28;20104;-65
2023/08/08 01:38:21;;;;;;;11.63;2.50;;;;;;;12.48;85.46;100204.09;5018533;28;20056;-63
2023/08/08 01:40:48;;;;;;;3.33;1.67;;;;;;;12.47;85.62;100195.31;5031624;28;20144;-65
2023/08/08 01:43:16;;;;;;;3.67;2.10;;;;;;;12.46;85.19;100193.63;5025212;28;20136;-65
2023/08/08 01:45:43;;;;;;;11.77;2.60;;;;;;;12.47;84.91;100199.75;5031033;28;20497;-64
2023/08/08 01:48:11;;;;;;;8.23;2.13;;;;;;;12.46;85.29;100188.34;5023750;28;20084;-65
2023/08/08 01:50:38;;;;;;;8.30;2.17;;;;;;;12.45;84.46;100215.69;5022464;28;20405;-66
2023/08/08 01:53:05;;;;;;;8.27;2.60;;;;;;;12.45;84.83;100202.50;5025332;28;20049;-64
2023/08/08 01:55:33;;;;;;;5.50;1.80;;;;;;;12.45;84.37;100199.88;5028061;28;20124;-64
2023/08/08 01:58:00;;;;;;;7.70;2.15;;;;;;;12.46;84.40;100201.53;5027322;28;20077;-65
2023/08/08 02:00:27;;;;;;;7.75;2.78;;;;;;;12.49;84.41;100182.00;5021559;28;20112;-66
2023/08/08 02:02:55;;;;;;;6.15;1.58;;;;;;;12.50;84.05;100186.31;5021054;28;20111;-66
2023/08/08 02:05:22;;;;;;;4.28;2.10;;;;;;;12.49;83.53;100190.75;5019063;28;20053;-66
2023/08/08 02:07:50;;;;;;;7.82;2.08;;;;;;;12.53;84.09;100179.03;5028983;28;20049;-65
2023/08/08 02:10:17;;;;;;;3.85;1.88;;;;;;;12.50;83.02;100178.41;5021334;28;20082;-65
2023/08/08 02:12:44;;;;;;;5.63;2.17;;;;;;;12.50;82.82;100176.59;5029349;28;20069;-65
2023/08/08 02:15:11;;;;;;;4.97;1.63;;;;;;;12.48;82.76;100178.53;5014538;28;20147;-66
2023/08/08 02:17:39;;;;;;;5.35;2.47;;;;;;;12.50;82.19;100166.03;5017859;28;20545;-66
2023/08/08 02:20:07;;;;;;;8.75;1.95;;;;;;;12.56;81.88;100181.44;5038554;28;20051;-65
2023/08/08 02:22:34;;;;;;;8.23;1.83;;;;;;;12.54;81.47;100174.59;5025295;28;20076;-65
2023/08/08 02:25:01;;;;;;;8.00;2.55;;;;;;;12.51;82.12;100188.84;5029924;28;20512;-66
2023/08/08 02:27:29;;;;;;;11.40;1.85;;;;;;;12.52;81.76;100176.47;5027793;28;20080;-66
2023/08/08 02:29:57;;;;;;;5.10;1.98;;;;;;;12.48;82.34;100178.53;5019779;28;20075;-65
2023/08/08 02:32:24;;;;;;;4.45;2.22;;;;;;;12.48;82.99;100186.44;5025777;28;20501;-64
2023/08/08 02:34:52;;;;;;;4.70;2.00;;;;;;;12.52;82.72;100169.44;5026792;28;20080;-64
2023/08/08 02:37:19;;;;;;;7.68;2.03;;;;;;;12.48;82.84;100169.78;5021006;28;20081;-68
2023/08/08 02:39:46;;;;;;;6.63;2.03;;;;;;;12.47;83.39;100176.81;5021263;28;20449;-67
2023/08/08 02:42:13;;;;;;;8.85;2.35;;;;;;;12.45;84.02;100176.09;5029754;28;20083;-64
2023/08/08 02:44:41;;;;;;;6.40;2.25;;;;;;;12.41;84.26;100166.72;5035906;28;20062;-65
2023/08/08 02:47:08;;;;;;;4.25;1.95;;;;;;;12.38;84.96;100182.78;5035845;28;20076;-65
2023/08/08 02:49:35;;;;;;;4.88;2.08;;;;;;;12.36;85.27;100172.34;5032821;28;20567;-65
2023/08/08 02:52:03;;;;;;;6.10;1.70;;;;;;;12.33;86.03;100162.00;5032756;28;20041;-66
2023/08/08 02:54:30;;;;;;;7.00;2.03;;;;;;;12.26;87.02;100183.69;5023723;28;20115;-65
2023/08/08 02:56:57;;;;;;;8.73;2.40;;;;;;;12.27;86.95;100169.53;5022849;28;20145;-65
2023/08/08 02:59:24;;;;;;;4.32;2.03;;;;;;;12.24;87.69;100165.31;5024779;28;20045;-66
2023/08/08 03:01:52;;;;;;;13.48;2.50;;;;;;;12.24;88.41;100175.88;5031283;28;20136;-66
2023/08/08 03:04:19;;;;;;;3.92;2.00;;;;;;;12.29;88.28;100173.75;5028027;28;20058;-66
2023/08/08 03:06:47;;;;;;;3.28;1.73;;;;;;;12.24;89.51;100183.78;5024482;28;20478;-66
2023/08/08 03:09:14;;;;;;;10.80;2.30;;;;;;;12.21;89.70;100188.47;5028122;28;20100;-65
2023/08/08 03:11:41;;;;;;;11.30;2.80;;;;;;;12.15;90.78;100174.75;5031346;28;20599;-63
2023/08/08 03:14:08;;;;;;;8.48;2.58;;;;;;;12.20;90.66;100171.78;5027010;28;20080;-65
2023/08/08 03:16:36;;;;;;;6.57;2.47;;;;;;;12.18;90.91;100162.28;5024479;28;20328;-65
2023/08/08 03:19:03;;;;;;;4.60;2.47;;;;;;;12.20;91.13;100160.38;5030768;28;20077;-65
2023/08/08 03:21:30;;;;;;;4.07;2.25;;;;;;;12.19;90.95;100166.63;5021576;28;20084;-67
2023/08/08 03:23:58;;;;;;;4.15;2.47;;;;;;;12.20;91.39;100158.56;5025765;28;20465;-65
2023/08/08 03:26:25;;;;;;;5.80;2.53;;;;;;;12.14;91.72;100188.91;5025156;28;20124;-65
2023/08/08 03:28:53;;;;;;;5.47;2.25;;;;;;;12.16;92.18;100176.44;5022157;28;21225;-65
2023/08/08 03:31:21;;;;;;;5.00;2.30;;;;;;;12.16;92.25;100175.63;5019352;28;20053;-64
2023/08/08 03:33:48;;;;;;;4.07;2.60;;;;;;;12.15;92.53;100174.75;5038190;28;20049;-65
2023/08/08 03:36:15;;;;;;;4.88;2.42;;;;;;;12.15;93.10;100166.81;5026801;28;20128;-65
2023/08/08 03:38:45;;;;;;;7.28;2.30;;;;;;;12.17;93.00;100169.38;5028480;28;20111;-65
2023/08/08 03:41:13;;;;;;;5.88;2.47;;;;;;;12.19;93.21;100167.44;5027322;28;20053;-65
2023/08/08 03:43:40;;;;;;;8.00;2.78;;;;;;;12.20;93.53;100179.69;5027246;28;20058;-66
2023/08/08 03:46:08;;;;;;;6.63;2.50;;;;;;;12.19;93.47;100185.91;5018260;28;20053;-64
2023/08/08 03:48:36;;;;;;;11.13;2.92;;;;;;;12.21;93.84;100183.19;5023784;28;20076;-66
2023/08/08 03:51:03;;;;;;;4.80;2.25;;;;;;;12.22;93.94;100169.88;5061060;22;20077;-63
2023/08/08 03:53:30;;;;;;;7.88;2.15;;;;;;;12.27;93.74;100169.53;5047429;28;20130;-65
2023/08/08 03:55:58;;;;;;;7.68;2.75;;;;;;;12.30;93.80;100191.28;5043564;28;20151;-66
2023/08/08 03:58:25;;;;;;;5.65;2.00;;;;;;;12.36;94.11;100182.06;5052083;28;20098;-66
2023/08/08 04:00:52;;;;;;;4.07;2.38;;;;;;;12.37;93.96;100174.00;5039825;28;20562;-63
2023/08/08 04:03:19;;;;;;;7.95;2.83;;;;;;;12.38;94.35;100169.56;5027373;28;20228;-64
2023/08/08 04:05:47;;;;;;;4.88;2.70;;;;;;;12.38;94.65;100177.50;5027678;28;20104;-65
2023/08/08 04:08:15;;;;;;;12.63;3.03;;;;;;;12.46;94.29;100166.38;5030074;28;20057;-65
2023/08/08 04:10:43;;;;;;;9.00;2.75;;;;;;;12.51;94.53;100180.09;5027971;28;20675;-64
2023/08/08 04:13:10;;;;;;;4.40;2.78;;;;;;;12.53;94.00;100172.91;5020532;28;20644;-66
2023/08/08 04:15:38;;;;;;;8.82;3.38;;;;;;;12.56;94.04;100191.13;5027249;28;20085;-64
2023/08/08 04:18:06;;;;;;;8.45;2.65;;;;;;;12.52;94.00;100185.28;5028791;28;20061;-65
2023/08/08 04:20:34;;;;;;;6.90;2.67;;;;;;;12.57;93.77;100179.66;5025926;28;20153;-66
2023/08/08 04:23:01;;;;;;;6.03;2.60;;;;;;;12.61;93.74;100178.47;5029277;28;20057;-65
2023/08/08 04:25:29;;;;;;;6.20;2.78;;;;;;;12.57;94.24;100174.38;5025624;28;20619;-65
2023/08/08 04:27:56;;;;;;;10.98;2.67;;;;;;;12.60;94.21;100182.88;5022259;28;20061;-65
2023/08/08 04:30:24;;;;;;;8.50;2.47;;;;;;;12.57;94.48;100162.00;5028628;28;20056;-65
2023/08/08 04:32:51;;;;;;;5.30;2.30;;;;;;;12.61;94.53;100162.63;5029550;28;20073;-63
2023/08/08 04:35:18;;;;;;;7.70;2.22;;;;;;;12.61;94.43;100159.97;5025811;28;20057;-64
2023/08/08 04:37:45;;;;;;;9.90;2.30;;;;;;;12.66;94.48;100185.06;5024337;28;20072;-66
2023/08/08 04:40:13;;;;;;;6.18;2.20;;;;;;;12.64;94.82;100172.94;5020540;28;20096;-65
2023/08/08 04:42:41;;;;;;;4.53;2.15;;;;;;;12.74;94.58;100173.09;5022237;28;20071;-64
2023/08/08 04:45:09;;;;;;;3.95;2.15;;;;;;;12.77;93.96;100170.22;5031117;28;20033;-63
2023/08/08 04:47:36;;;;;;;6.47;2.63;;;;;;;12.82;93.95;100200.59;5029597;28;20145;-65
2023/08/08 04:50:03;;;;;;;6.00;2.38;;;;;;;12.89;94.24;100166.66;5021323;28;20077;-62
2023/08/08 04:52:31;;;;;;;8.30;2.33;;;;;;;12.88;93.52;100167.63;5028332;28;20133;-65
2023/08/08 04:54:58;;;;;;;5.53;2.17;;;;;;;12.90;93.31;100173.63;5026610;28;20138;-66
2023/08/08 05:00:17;;;;;;;9.93;2.10;;;;;;;12.99;93.46;100172.91;5023670;28;20053;-65
2023/08/08 05:02:44;;;;;;;7.50;2.00;;;;;;;13.08;92.93;100174.84;5024462;28;20053;-63
2023/08/08 05:05:12;;;;;;;5.70;2.13;;;;;;;13.12;92.45;100163.09;5019092;28;20096;-65
2023/08/08 05:07:39;;;;;;;6.45;2.22;;;;;;;13.17;92.53;100173.31;5024310;28;20076;-66
2023/08/08 05:10:06;;;;;;;6.10;2.25;;;;;;;13.06;92.45;100175.97;5024186;28;20077;-64
2023/08/08 05:12:34;;;;;;;8.23;2.95;;;;;;;13.11;92.28;100169.34;5025995;28;20042;-63
2023/08/08 05:15:01;;;;;;;7.20;2.25;;;;;;;13.09;92.83;100168.59;5028611;28;20073;-64
2023/08/08 05:17:30;;;;;;;5.35;2.20;;;;;;;13.03;93.04;100157.69;5021567;28;20069;-63
2023/08/08 05:19:58;;;;;;;5.20;2.08;;;;;;;13.09;93.05;100175.69;5024409;28;20465;-64
2023/08/08 05:22:26;;;;;;;4.97;2.00;;;;;;;13.11;92.53;100174.63;5028340;28;20073;-64
2023/08/08 05:24:53;;;;;;;7.15;2.45;;;;;;;13.12;93.18;100167.53;5027257;28;20133;-63
2023/08/08 05:27:21;;;;;;;4.40;2.25;;;;;;;13.22;92.78;100172.97;5031586;28;20394;-64
2023/08/08 05:29:48;;;;;;;14.30;2.72;;;;;;;13.19;92.68;100174.03;5021027;28;20486;-64
2023/08/08 05:32:15;;;;;;;6.97;2.00;;;;;;;13.23;92.63;100164.09;5018110;28;20053;-62
2023/08/08 05:34:42;;;;;;;4.95;2.08;;;;;;;13.28;92.44;100183.91;5021604;28;20120;-63
2023/08/08 05:37:10;;;;;;;12.23;2.90;;;;;;;13.30;92.62;100167.97;5024417;28;20057;-64
2023/08/08 05:39:44;;;;;;;7.53;2.08;;;;;;;13.44;92.48;100170.38;5025635;28;20081;-64
2023/08/08 05:42:12;;;;;;;5.85;2.20;;;;;;;13.62;90.61;100190.09;5026263;28;20073;-65
2023/08/08 05:44:41;;;;;;;7.43;2.33;;;;;;;13.69;90.36;100166.66;5048631;28;20088;-62
2023/08/08 05:47:09;;;;;;;5.75;2.05;;;;;;;13.84;89.92;100165.41;5036181;28;20061;-63
2023/08/08 05:49:36;;;;;;;4.63;1.92;;;;;;;13.91;89.20;100176.34;5040697;28;20053;-63
2023/08/08 05:52:04;;;;;;;9.73;2.10;;;;;;;13.89;89.51;100173.00;5028727;28;20076;-66
2023/08/08 05:54:31;;;;;;;6.25;2.10;;;;;;;13.99;88.45;100171.28;5026962;28;20140;-64
2023/08/08 05:56:58;;;;;;;4.68;1.85;;;;;;;14.06;88.18;100171.66;5018388;28;20537;-62
2023/08/08 05:59:26;;;;;;;3.88;2.58;;;;;;;14.05;88.11;100183.16;5038291;28;20075;-64
2023/08/08 06:01:53;;;;;;;7.57;2.50;;;;;;;13.97;88.95;100196.19;5026960;28;20083;-65
2023/08/08 06:04:20;;;;;;;4.95;2.72;;;;;;;13.96;88.69;100173.31;5021563;28;20092;-63
2023/08/08 06:06:49;;;;;;;7.95;2.25;;;;;;;13.95;89.48;100169.84;5024840;28;20418;-64
2023/08/08 06:09:16;;;;;;;11.90;2.33;;;;;;;14.14;88.64;100169.22;5022197;28;20475;-66
2023/08/08 06:11:44;;;;;;;4.15;2.10;;;;;;;14.27;87.13;100198.16;5026340;28;20093;-65
2023/08/08 06:14:11;;;;;;;9.15;2.30;;;;;;;14.18;87.25;100192.69;5025692;28;20386;-64
2023/08/08 06:16:38;;;;;;;4.35;1.95;;;;;;;14.24;87.01;100178.09;5023719;28;20099;-65
2023/08/08 06:19:06;;;;;;;5.28;2.58;;;;;;;14.26;87.43;100176.16;5019291;28;20041;-66
2023/08/08 06:21:33;;;;;;;4.35;2.42;;;;;;;14.34;87.42;100210.78;5021903;28;20054;-63
2023/08/08 06:24:00;;;;;;;5.00;2.47;;;;;;;14.29;87.28;100186.50;5018490;28;20137;-66
2023/08/08 06:26:28;;;;;;;8.65;2.10;;;;;;;14.39;86.86;100168.88;5020321;28;20058;-65
2023/08/08 06:28:55;;;;;;;8.98;2.25;;;;;;;14.57;86.63;100171.84;5022700;28;20080;-65
2023/08/08 06:31:23;;;;;;;9.77;2.50;;;;;;;14.84;85.81;100191.72;5025092;28;20065;-64
2023/08/08 06:33:50;;;;;;;5.03;2.35;;;;;;;14.74;85.05;100172.28;5023800;28;20121;-63
2023/08/08 06:36:17;;;;;;;9.15;2.33;;;;;;;14.74;85.08;100199.59;5019894;28;20066;-63
2023/08/08 06:38:44;;;;;;;12.40;2.67;;;;;;;14.63;85.72;100174.03;5020460;28;20141;-63
2023/08/08 06:41:12;;;;;;;8.85;2.20;;;;;;;14.69;85.79;100170.00;5023069;28;20080;-65
2023/08/08 06:43:39;;;;;;;12.15;2.95;;;;;;;14.70;85.87;100174.34;5026479;28;20624;-64
2023/08/08 06:46:07;;;;;;;5.88;2.53;;;;;;;14.73;85.74;100171.44;5029078;28;20103;-64
2023/08/08 06:48:34;;;;;;;9.38;2.30;;;;;;;14.74;85.91;100182.88;5019459;28;20532;-64
2023/08/08 06:51:01;;;;;;;4.97;2.20;;;;;;;14.68;85.70;100179.78;5021371;28;20509;-64
2023/08/08 06:53:29;;;;;;;6.78;2.65;;;;;;;14.64;86.46;100175.69;5026886;28;20087;-65
2023/08/08 06:55:56;;;;;;;3.78;2.17;;;;;;;14.66;86.51;100179.03;5021459;28;20049;-65
2023/08/08 06:58:23;;;;;;;4.53;2.45;;;;;;;14.73;85.40;100195.28;5025836;28;20080;-65
2023/08/08 07:00:51;;;;;;;8.18;2.70;;;;;;;14.79;85.09;100175.38;5034424;28;20104;-64
2023/08/08 07:03:18;;;;;;;8.15;2.42;;;;;;;14.99;84.43;100184.28;5023480;28;20465;-65
2023/08/08 07:05:47;;;;;;;6.60;2.30;;;;;;;15.08;84.05;100194.94;5024078;28;20053;-65
2023/08/08 07:08:14;;;;;;;3.92;1.70;;;;;;;15.05;83.41;100179.34;5022790;28;20119;-64
2023/08/08 07:10:42;;;;;;;5.78;2.40;;;;;;;15.08;83.60;100172.91;5028152;28;20053;-63
2023/08/08 07:13:09;;;;;;;5.50;1.90;;;;;;;15.25;83.28;100182.09;5021101;28;20126;-64
2023/08/08 07:15:37;;;;;;;5.95;1.85;;;;;;;15.28;83.02;100198.59;5017331;28;20104;-61
2023/08/08 07:18:04;;;;;;;12.68;2.47;;;;;;;15.47;82.58;100187.22;5023974;28;20122;-66
2023/08/08 07:20:32;;;;;;;8.93;2.40;;;;;;;15.68;81.54;100190.72;5026338;28;20045;-63
2023/08/08 07:23:01;;;;;;;6.07;2.20;;;;;;;15.79;79.99;100191.59;5023504;28;20107;-65
2023/08/08 07:25:31;;;;;;;2.78;1.77;;;;;;;15.92;79.78;100185.06;5022072;28;20145;-64
2023/08/08 07:28:02;;;;;;;3.60;1.73;;;;;;;15.75;79.76;100185.69;5023693;28;20156;-63
2023/08/08 07:30:29;;;;;;;6.90;2.72;;;;;;;15.68;79.45;100192.53;5025615;28;20107;-64
2023/08/08 07:32:57;;;;;;;3.97;1.92;;;;;;;15.52;80.37;100211.53;5022343;28;20072;-64
2023/08/08 07:35:24;;;;;;;5.30;1.90;;;;;;;15.47;80.21;100181.91;5030294;28;20497;-63
2023/08/08 07:37:51;;;;;;;6.57;2.00;;;;;;;15.43;80.99;100186.66;5027440;28;20540;-65
2023/08/08 07:40:21;;;;;;;2.58;1.98;;;;;;;15.60;79.77;100203.78;5018266;28;20065;-63
2023/08/08 07:42:49;;;;;;;6.05;2.00;;;;;;;15.65;79.95;100192.78;5031552;28;20137;-65
2023/08/08 07:45:16;;;;;;;4.88;2.08;;;;;;;15.91;79.50;100191.34;5020338;28;20073;-65
2023/08/08 07:47:43;;;;;;;4.32;1.98;;;;;;;15.98;77.37;100177.53;5026775;28;20067;-65
2023/08/08 07:50:11;;;;;;;10.32;2.40;;;;;;;15.87;77.79;100191.75;5024088;28;20111;-64
2023/08/08 07:52:39;;;;;;;4.95;2.20;;;;;;;16.09;77.66;100186.22;5019004;28;20069;-65
2023/08/08 07:55:06;;;;;;;2.90;1.75;;;;;;;16.11;76.98;100197.53;5021366;28;20466;-65
2023/08/08 07:57:34;;;;;;;4.97;2.10;;;;;;;15.99;76.90;100182.72;5020623;28;20054;-65
2023/08/08 08:00:11;;;;;;;9.30;2.22;;;;;;;15.86;77.57;100193.56;5019896;28;20459;-65
2023/08/08 08:02:40;;;;;;;4.85;1.90;;;;;;;16.04;77.15;100222.97;5025786;28;20747;-65
2023/08/08 08:05:08;;;;;;;6.00;1.90;;;;;;;15.87;77.38;100186.44;5024066;28;20141;-63
2023/08/08 08:07:36;;;;;;;7.00;2.67;;;;;;;16.23;76.77;100192.13;5017394;28;20054;-64
2023/08/08 08:10:06;;;;;;;6.53;2.13;;;;;;;16.36;76.23;100187.38;5022657;28;20141;-65
2023/08/08 08:12:33;;;;;;;4.90;1.88;;;;;;;16.63;75.38;100184.88;5021103;28;20057;-65
2023/08/08 08:15:01;;;;;;;5.90;2.28;;;;;;;16.95;74.16;100186.44;5021611;28;20502;-65
2023/08/08 08:17:28;;;;;;;10.68;2.50;;;;;;;16.65;73.62;100177.59;5020158;28;20077;-65
2023/08/08 08:19:56;;;;;;;5.90;2.08;;;;;;;16.78;73.49;100185.31;5019397;28;20046;-65
2023/08/08 08:22:23;;;;;;;4.72;2.28;;;;;;;17.12;71.64;100175.06;5025871;28;20135;-66
2023/08/08 08:24:50;;;;;;;4.72;2.35;;;;;;;17.32;71.23;100181.16;5024190;28;20041;-65
2023/08/08 08:27:18;;;;;;;7.35;2.10;;;;;;;17.38;70.94;100172.63;5021665;28;20049;-65
2023/08/08 08:29:45;;;;;;;4.63;1.77;;;;;;;17.51;69.80;100168.78;5016048;28;20077;-65
2023/08/08 08:32:12;;;;;;;4.15;1.73;;;;;;;17.64;69.17;100167.47;5018368;28;20507;-64
2023/08/08 08:34:40;;;;;;;7.65;2.20;;;;;;;17.46;69.31;100177.19;5019342;28;20137;-65
2023/08/08 08:37:07;;;;;;;4.35;1.83;;;;;;;17.65;69.39;100166.50;5023138;28;20235;-66
2023/08/08 08:39:34;;;;;;;6.32;2.03;;;;;;;17.43;67.31;100185.50;5027205;28;20153;-67
2023/08/08 08:42:04;;;;;;;10.00;1.60;;;;;;;17.45;65.75;100168.38;5027772;28;20148;-66
2023/08/08 08:44:32;;;;;;;4.43;1.55;;;;;;;17.68;66.03;100200.78;5022603;28;20460;-66
2023/08/08 08:47:02;;;;;;;8.52;2.10;;;;;;;17.24;66.33;100204.16;5020150;28;20080;-66
2023/08/08 08:49:32;;;;;;;7.97;2.17;;;;;;;16.82;68.34;100186.72;5023180;28;20083;-64
2023/08/08 08:52:04;;;;;;;6.28;1.63;;;;;;;16.79;68.33;100179.03;5023891;28;20073;-65
2023/08/08 08:54:32;;;;;;;5.82;1.63;;;;;;;17.10;69.14;100169.03;5028271;28;20054;-66
2023/08/08 08:57:00;;;;;;;4.72;2.33;;;;;;;17.61;69.02;100177.59;5022560;28;20620;-64
2023/08/08 08:59:27;;;;;;;9.27;1.95;;;;;;;17.32;67.76;100183.81;5017115;28;20152;-65
2023/08/08 09:01:55;;;;;;;13.55;2.65;;;;;;;17.42;68.12;100183.78;5039117;28;20137;-66
2023/08/08 09:04:23;;;;;;;5.97;1.75;;;;;;;17.18;68.96;100182.47;5028020;28;20508;-65
2023/08/08 09:06:51;;;;;;;6.88;1.77;;;;;;;17.26;69.25;100178.25;5025435;28;20103;-65
2023/08/08 09:09:21;;;;;;;5.43;2.42;;;;;;;17.59;68.02;100169.72;5020303;28;20077;-64
2023/08/08 09:11:50;;;;;;;4.78;1.90;;;;;;;17.93;66.53;100169.19;5022308;28;20218;-65
2023/08/08 09:14:25;;;;;;;5.93;1.60;;;;;;;17.78;66.58;100178.63;5027632;28;20053;-65
2023/08/08 09:16:53;;;;;;;7.03;2.08;;;;;;;17.95;65.54;100164.53;5025550;28;20077;-65
2023/08/08 09:19:21;;;;;;;5.32;1.95;;;;;;;18.07;65.64;100163.34;5027325;28;20148;-64
2023/08/08 09:21:49;;;;;;;3.85;1.58;;;;;;;18.05;65.22;100164.47;5023059;28;20066;-63
2023/08/08 09:24:17;;;;;;;4.60;1.95;;;;;;;18.10;65.45;100165.72;5020860;28;20136;-63
2023/08/08 09:26:44;;;;;;;5.80;1.70;;;;;;;18.14;65.13;100158.25;5021325;28;20067;-63
2023/08/08 09:29:14;;;;;;;10.50;2.15;;;;;;;17.82;65.48;100170.22;5024793;28;20540;-65
2023/08/08 09:31:41;;;;;;;4.63;2.20;;;;;;;17.64;65.28;100153.31;5022929;28;20099;-64
2023/08/08 09:34:08;;;;;;;3.20;1.70;;;;;;;17.58;65.25;100141.44;5029804;28;20128;-64
2023/08/08 09:36:36;;;;;;;7.07;2.30;;;;;;;17.83;65.57;100149.75;5023240;28;20092;-62
2023/08/08 09:39:04;;;;;;;3.67;1.98;;;;;;;17.67;65.14;100142.38;5028218;28;20068;-64
2023/08/08 09:41:32;;;;;;;7.20;2.10;;;;;;;17.76;64.29;100151.34;5024007;28;20045;-65
2023/08/08 09:44:00;;;;;;;4.35;1.83;;;;;;;17.62;64.71;100132.19;5020786;28;20085;-62
2023/08/08 09:46:29;;;;;;;7.85;2.17;;;;;;;17.80;64.14;100152.72;5025589;28;20455;-63
2023/08/08 09:48:57;;;;;;;5.20;2.00;;;;;;;18.04;63.30;100139.66;5026241;28;20084;-64
2023/08/08 09:51:25;;;;;;;4.38;2.05;;;;;;;18.43;62.28;100155.38;5033313;28;20203;-65
2023/08/08 09:53:53;;;;;;;4.18;1.70;;;;;;;18.43;61.24;100126.91;5044652;23;20303;-63
2023/08/08 09:56:20;;;;;;;5.75;2.00;;;;;;;18.44;61.21;100120.56;5020976;28;20144;-64
2023/08/08 09:58:47;;;;;;;6.03;2.10;;;;;;;18.36;61.54;100122.31;5027238;28;20468;-64
2023/08/08 10:01:15;;;;;;;8.43;1.75;;;;;;;18.26;62.36;100134.91;5023310;28;20065;-64
2023/08/08 10:03:43;;;;;;;12.25;2.33;;;;;;;17.99;63.16;100159.75;5021721;28;20166;-65
2023/08/08 10:06:10;;;;;;;5.78;2.20;;;;;;;17.50;67.82;100153.81;5024261;28;20140;-64
2023/08/08 10:08:38;;;;;;;12.57;3.05;;;;;;;16.97;74.71;100157.88;5029641;28;20125;-64
2023/08/08 10:11:08;;;;;;;11.38;3.50;;;;;;;16.45;80.23;100173.28;5028908;28;20145;-64
2023/08/08 10:13:36;;;;;;;8.30;2.67;;;;;;;16.12;82.18;100146.13;5030310;28;20046;-64
2023/08/08 10:16:09;;;;;;;5.68;1.88;;;;;;;16.39;81.66;100141.94;5025295;28;20492;-64
2023/08/08 10:18:36;;;;;;;6.00;2.17;;;;;;;16.52;82.18;100142.50;5024898;28;20073;-64
2023/08/08 10:21:04;;;;;;;4.30;2.38;;;;;;;16.62;82.64;100131.88;5016334;28;20068;-64
2023/08/08 10:23:38;;;;;;;9.55;2.30;;;;;;;16.62;81.76;100140.69;5025802;28;20141;-65
2023/08/08 10:26:22;;;;;;;6.60;2.60;;;;;;;16.56;82.71;100135.09;5024109;28;20111;-65
2023/08/08 10:28:54;;;;;;;6.47;2.33;;;;;;;16.46;83.34;100138.59;5032559;28;20099;-64
2023/08/08 10:31:26;;;;;;;5.70;2.58;;;;;;;16.42;85.12;100128.38;5024820;28;20072;-64
2023/08/08 10:34:04;;;;;;;3.88;2.50;;;;;;;16.81;85.57;100126.56;5025512;28;20513;-64
2023/08/08 10:37:10;;;;;;;5.80;2.33;;;;;;;17.31;80.74;100141.41;5023371;28;20559;-64
2023/08/08 10:39:38;;;;;;;9.77;2.17;;;;;;;17.55;78.31;100116.94;5007003;28;20569;-64
2023/08/08 10:42:05;;;;;;;5.55;2.50;;;;;;;17.94;74.57;100122.91;5025599;28;20145;-64
2023/08/08 10:44:41;;;;;;;5.97;2.40;;;;;;;18.35;68.66;100102.00;5019732;28;20057;-64
2023/08/08 10:47:11;;;;;;;4.28;2.10;;;;;;;18.22;69.68;100091.72;5026559;28;20100;-64
2023/08/08 10:49:38;;;;;;;5.70;2.00;;;;;;;18.02;69.28;100133.66;5022801;28;20136;-64
2023/08/08 10:52:05;;;;;;;9.75;2.33;;;;;;;17.38;70.93;100115.88;5022827;28;20154;-64
2023/08/08 10:54:33;;;;;;;6.28;2.28;;;;;;;17.12;71.33;100137.00;5025444;28;20406;-64
2023/08/08 10:57:00;;;;;;;6.40;2.03;;;;;;;16.68;73.86;100128.66;5021652;28;20065;-64
2023/08/08 10:59:36;;;;;;;7.30;2.08;;;;;;;16.75;76.30;100126.28;5029170;28;20553;-64
2023/08/08 11:02:04;;;;;;;4.97;1.90;;;;;;;16.90;76.91;100117.72;5022547;28;20476;-64
2023/08/08 11:04:32;;;;;;;7.95;2.47;;;;;;;17.07;77.41;100118.81;5023567;28;20058;-64
2023/08/08 11:07:00;;;;;;;3.80;2.10;;;;;;;17.02;73.84;100113.09;5021098;28;20086;-64
2023/08/08 11:09:27;;;;;;;7.40;2.25;;;;;;;17.22;69.27;100124.50;5028304;28;20092;-64
2023/08/08 11:11:54;;;;;;;2.67;1.63;;;;;;;17.29;66.74;100116.75;5029533;28;20148;-63
2023/08/08 11:14:22;;;;;;;5.65;1.60;;;;;;;17.61;66.76;100113.72;5027750;28;20115;-64
2023/08/08 11:16:51;;;;;;;7.40;1.85;;;;;;;17.94;66.44;100101.63;5021506;28;20470;-63
2023/08/08 11:19:20;;;;;;;4.50;2.00;;;;;;;18.22;64.07;100129.03;5019332;28;20505;-64
2023/08/08 11:21:48;;;;;;;4.57;1.90;;;;;;;18.29;63.45;100118.63;5022593;28;20454;-64
2023/08/08 11:24:15;;;;;;;5.20;2.00;;;;;;;18.74;62.32;100123.03;5027445;28;20119;-64
2023/08/08 11:26:45;;;;;;;3.95;1.77;;;;;;;18.56;59.76;100107.84;5034663;28;20519;-63
2023/08/08 11:29:12;;;;;;;4.03;1.67;;;;;;;18.14;62.27;100105.81;5029715;28;20057;-64
2023/08/08 11:31:39;;;;;;;7.57;2.05;;;;;;;17.79;66.16;100154.56;5035346;28;20050;-64